sensor_id;sensor_type;location;lat;lon;timestamp;temperature;humidity
37794;DHT22;23632;48.826;15.176;2023-06-22T00:00:15;28.20;59.30
37794;DHT22;23632;48.826;15.176;2023-06-22T00:02:42;28.10;59.30
37794;DHT22;23632;48.826;15.176;2023-06-22T00:05:09;28.10;59.40
37794;DHT22;23632;48.826;15.176;2023-06-22T00:07:37;28.10;59.30
37794;DHT22;23632;48.826;15.176;2023-06-22T00:10:04;28.10;59.40
37794;DHT22;23632;48.826;15.176;2023-06-22T00:12:32;28.10;59.40
37794;DHT22;23632;48.826;15.176;2023-06-22T00:14:59;28.10;59.50
37794;DHT22;23632;48.826;15.176;2023-06-22T00:17:27;28.00;59.40
37794;DHT22;23632;48.826;15.176;2023-06-22T00:19:54;28.00;59.50
37794;DHT22;23632;48.826;15.176;2023-06-22T00:22:23;28.00;59.50
37794;DHT22;23632;48.826;15.176;2023-06-22T00:24:56;28.00;59.50
37794;DHT22;23632;48.826;15.176;2023-06-22T00:27:23;28.00;59.60
37794;DHT22;23632;48.826;15.176;2023-06-22T00:29:51;28.00;59.60
37794;DHT22;23632;48.826;15.176;2023-06-22T00:32:18;27.90;59.60
37794;DHT22;23632;48.826;15.176;2023-06-22T00:34:47;27.90;59.60
37794;DHT22;23632;48.826;15.176;2023-06-22T00:37:14;27.90;59.70
37794;DHT22;23632;48.826;15.176;2023-06-22T00:39:43;27.80;59.60
37794;DHT22;23632;48.826;15.176;2023-06-22T00:42:10;27.80;59.70
37794;DHT22;23632;48.826;15.176;2023-06-22T00:44:37;27.80;59.70
37794;DHT22;23632;48.826;15.176;2023-06-22T00:47:04;27.80;59.80
37794;DHT22;23632;48.826;15.176;2023-06-22T00:49:33;27.80;59.90
37794;DHT22;23632;48.826;15.176;2023-06-22T00:52:01;27.80;59.90
37794;DHT22;23632;48.826;15.176;2023-06-22T00:54:29;27.70;59.90
37794;DHT22;23632;48.826;15.176;2023-06-22T00:56:57;27.70;60.00
37794;DHT22;23632;48.826;15.176;2023-06-22T00:59:24;27.70;60.00
37794;DHT22;23632;48.826;15.176;2023-06-22T01:01:53;27.70;60.00
37794;DHT22;23632;48.826;15.176;2023-06-22T01:04:34;27.70;60.10
37794;DHT22;23632;48.826;15.176;2023-06-22T01:07:26;27.70;60.10
37794;DHT22;23632;48.826;15.176;2023-06-22T01:13:01;27.70;61.10
37794;DHT22;23632;48.826;15.176;2023-06-22T01:15:36;27.70;60.20
37794;DHT22;23632;48.826;15.176;2023-06-22T01:18:07;27.70;60.30
37794;DHT22;23632;48.826;15.176;2023-06-22T01:20:36;27.60;60.20
37794;DHT22;23632;48.826;15.176;2023-06-22T01:26:38;27.60;61.20
37794;DHT22;23632;48.826;15.176;2023-06-22T01:29:11;27.60;60.20
37794;DHT22;23632;48.826;15.176;2023-06-22T01:31:41;27.60;60.20
37794;DHT22;23632;48.826;15.176;2023-06-22T01:34:12;27.60;60.30
37794;DHT22;23632;48.826;15.176;2023-06-22T01:36:40;27.60;60.30
37794;DHT22;23632;48.826;15.176;2023-06-22T01:39:08;27.60;60.30
37794;DHT22;23632;48.826;15.176;2023-06-22T01:41:37;27.60;60.30
37794;DHT22;23632;48.826;15.176;2023-06-22T01:44:06;27.60;60.40
37794;DHT22;23632;48.826;15.176;2023-06-22T01:46:36;27.60;60.30
37794;DHT22;23632;48.826;15.176;2023-06-22T01:49:04;27.60;60.30
37794;DHT22;23632;48.826;15.176;2023-06-22T01:51:32;27.60;60.40
37794;DHT22;23632;48.826;15.176;2023-06-22T01:54:00;27.60;60.30
37794;DHT22;23632;48.826;15.176;2023-06-22T01:56:28;27.60;60.30
37794;DHT22;23632;48.826;15.176;2023-06-22T01:59:25;27.60;60.40
37794;DHT22;23632;48.826;15.176;2023-06-22T02:02:01;27.60;60.40
37794;DHT22;23632;48.826;15.176;2023-06-22T02:04:42;27.50;60.30
37794;DHT22;23632;48.826;15.176;2023-06-22T02:07:15;27.50;60.30
37794;DHT22;23632;48.826;15.176;2023-06-22T02:09:45;27.50;60.30
37794;DHT22;23632;48.826;15.176;2023-06-22T02:12:17;27.50;60.30
37794;DHT22;23632;48.826;15.176;2023-06-22T02:14:47;27.50;61.20
37794;DHT22;23632;48.826;15.176;2023-06-22T02:17:14;27.50;60.30
37794;DHT22;23632;48.826;15.176;2023-06-22T02:19:43;27.50;60.30
37794;DHT22;23632;48.826;15.176;2023-06-22T02:22:10;27.50;60.30
37794;DHT22;23632;48.826;15.176;2023-06-22T02:24:39;27.40;60.20
37794;DHT22;23632;48.826;15.176;2023-06-22T02:27:06;27.40;60.20
37794;DHT22;23632;48.826;15.176;2023-06-22T02:29:34;27.40;60.30
37794;DHT22;23632;48.826;15.176;2023-06-22T02:32:01;27.40;60.30
37794;DHT22;23632;48.826;15.176;2023-06-22T02:34:29;27.40;60.30
37794;DHT22;23632;48.826;15.176;2023-06-22T02:36:56;27.40;60.30
37794;DHT22;23632;48.826;15.176;2023-06-22T02:39:24;27.40;60.30
37794;DHT22;23632;48.826;15.176;2023-06-22T02:41:53;27.40;60.30
37794;DHT22;23632;48.826;15.176;2023-06-22T02:44:22;27.30;60.30
37794;DHT22;23632;48.826;15.176;2023-06-22T02:46:49;27.30;60.30
37794;DHT22;23632;48.826;15.176;2023-06-22T02:49:17;27.30;60.30
37794;DHT22;23632;48.826;15.176;2023-06-22T02:51:46;27.30;61.30
37794;DHT22;23632;48.826;15.176;2023-06-22T02:54:17;27.30;60.30
37794;DHT22;23632;48.826;15.176;2023-06-22T02:56:46;27.30;60.30
37794;DHT22;23632;48.826;15.176;2023-06-22T02:59:14;27.20;60.20
37794;DHT22;23632;48.826;15.176;2023-06-22T03:01:44;27.20;60.30
37794;DHT22;23632;48.826;15.176;2023-06-22T03:04:20;27.20;60.30
37794;DHT22;23632;48.826;15.176;2023-06-22T03:06:47;27.20;60.30
37794;DHT22;23632;48.826;15.176;2023-06-22T03:09:18;27.20;60.40
37794;DHT22;23632;48.826;15.176;2023-06-22T03:11:45;27.20;60.30
37794;DHT22;23632;48.826;15.176;2023-06-22T03:14:13;27.20;60.30
37794;DHT22;23632;48.826;15.176;2023-06-22T03:16:39;27.10;60.30
37794;DHT22;23632;48.826;15.176;2023-06-22T03:19:08;27.10;60.40
37794;DHT22;23632;48.826;15.176;2023-06-22T03:21:37;27.20;60.50
37794;DHT22;23632;48.826;15.176;2023-06-22T03:24:06;27.10;60.50
37794;DHT22;23632;48.826;15.176;2023-06-22T03:26:35;27.10;60.40
37794;DHT22;23632;48.826;15.176;2023-06-22T03:29:02;27.10;61.40
37794;DHT22;23632;48.826;15.176;2023-06-22T03:31:30;27.10;60.50
37794;DHT22;23632;48.826;15.176;2023-06-22T03:33:58;27.10;60.50
37794;DHT22;23632;48.826;15.176;2023-06-22T03:36:26;27.10;60.50
37794;DHT22;23632;48.826;15.176;2023-06-22T03:38:53;27.10;60.50
37794;DHT22;23632;48.826;15.176;2023-06-22T03:41:21;27.00;60.50
37794;DHT22;23632;48.826;15.176;2023-06-22T03:43:48;27.00;60.50
37794;DHT22;23632;48.826;15.176;2023-06-22T03:46:15;27.00;60.60
37794;DHT22;23632;48.826;15.176;2023-06-22T03:48:43;27.00;60.60
37794;DHT22;23632;48.826;15.176;2023-06-22T03:51:10;27.00;60.60
37794;DHT22;23632;48.826;15.176;2023-06-22T03:53:37;27.00;60.60
37794;DHT22;23632;48.826;15.176;2023-06-22T03:56:05;27.00;60.60
37794;DHT22;23632;48.826;15.176;2023-06-22T03:58:32;27.00;60.70
37794;DHT22;23632;48.826;15.176;2023-06-22T04:01:00;27.00;60.70
37794;DHT22;23632;48.826;15.176;2023-06-22T04:03:27;27.00;60.70
37794;DHT22;23632;48.826;15.176;2023-06-22T04:05:55;26.90;60.70
37794;DHT22;23632;48.826;15.176;2023-06-22T04:08:22;26.90;60.70
37794;DHT22;23632;48.826;15.176;2023-06-22T04:10:49;26.90;60.70
37794;DHT22;23632;48.826;15.176;2023-06-22T04:13:16;26.90;60.80
37794;DHT22;23632;48.826;15.176;2023-06-22T04:15:43;27.00;60.90
37794;DHT22;23632;48.826;15.176;2023-06-22T04:18:10;26.90;60.80
37794;DHT22;23632;48.826;15.176;2023-06-22T04:20:37;26.90;60.90
37794;DHT22;23632;48.826;15.176;2023-06-22T04:23:05;26.90;60.90
37794;DHT22;23632;48.826;15.176;2023-06-22T04:25:32;26.90;61.00
37794;DHT22;23632;48.826;15.176;2023-06-22T04:28:00;26.90;61.00
37794;DHT22;23632;48.826;15.176;2023-06-22T04:30:32;26.90;61.00
37794;DHT22;23632;48.826;15.176;2023-06-22T04:33:00;26.90;61.10
37794;DHT22;23632;48.826;15.176;2023-06-22T04:35:27;26.90;61.10
37794;DHT22;23632;48.826;15.176;2023-06-22T04:37:58;26.90;61.10
37794;DHT22;23632;48.826;15.176;2023-06-22T04:40:25;26.90;61.20
37794;DHT22;23632;48.826;15.176;2023-06-22T04:42:53;26.90;61.20
37794;DHT22;23632;48.826;15.176;2023-06-22T04:45:21;26.90;61.20
37794;DHT22;23632;48.826;15.176;2023-06-22T04:47:48;26.90;61.30
37794;DHT22;23632;48.826;15.176;2023-06-22T04:50:16;26.90;61.40
37794;DHT22;23632;48.826;15.176;2023-06-22T04:52:44;26.90;61.40
37794;DHT22;23632;48.826;15.176;2023-06-22T04:55:12;27.00;61.50
37794;DHT22;23632;48.826;15.176;2023-06-22T04:57:45;27.00;61.50
37794;DHT22;23632;48.826;15.176;2023-06-22T05:00:17;27.00;61.50
37794;DHT22;23632;48.826;15.176;2023-06-22T05:02:46;27.00;61.60
37794;DHT22;23632;48.826;15.176;2023-06-22T05:05:14;27.00;61.60
37794;DHT22;23632;48.826;15.176;2023-06-22T05:07:43;27.00;61.60
37794;DHT22;23632;48.826;15.176;2023-06-22T05:10:12;27.00;61.70
37794;DHT22;23632;48.826;15.176;2023-06-22T05:12:40;27.00;61.70
37794;DHT22;23632;48.826;15.176;2023-06-22T05:15:08;27.00;61.70
37794;DHT22;23632;48.826;15.176;2023-06-22T05:17:36;27.00;61.70
37794;DHT22;23632;48.826;15.176;2023-06-22T05:20:11;27.00;61.80
37794;DHT22;23632;48.826;15.176;2023-06-22T05:22:39;27.00;61.80
37794;DHT22;23632;48.826;15.176;2023-06-22T05:25:09;27.10;61.80
37794;DHT22;23632;48.826;15.176;2023-06-22T05:27:37;27.10;61.80
37794;DHT22;23632;48.826;15.176;2023-06-22T05:30:08;27.10;61.80
37794;DHT22;23632;48.826;15.176;2023-06-22T05:32:36;27.10;61.80
37794;DHT22;23632;48.826;15.176;2023-06-22T05:35:04;27.10;61.80
37794;DHT22;23632;48.826;15.176;2023-06-22T05:37:31;27.10;61.80
37794;DHT22;23632;48.826;15.176;2023-06-22T05:39:58;27.10;61.80
37794;DHT22;23632;48.826;15.176;2023-06-22T05:42:26;27.10;61.80
37794;DHT22;23632;48.826;15.176;2023-06-22T05:44:53;27.10;61.90
37794;DHT22;23632;48.826;15.176;2023-06-22T05:47:20;27.10;61.80
37794;DHT22;23632;48.826;15.176;2023-06-22T05:49:48;27.20;61.90
37794;DHT22;23632;48.826;15.176;2023-06-22T05:52:15;27.20;61.90
37794;DHT22;23632;48.826;15.176;2023-06-22T05:54:42;27.20;61.90
37794;DHT22;23632;48.826;15.176;2023-06-22T05:57:09;27.20;62.00
37794;DHT22;23632;48.826;15.176;2023-06-22T05:59:36;27.20;62.10
37794;DHT22;23632;48.826;15.176;2023-06-22T06:02:04;27.20;62.00
37794;DHT22;23632;48.826;15.176;2023-06-22T06:04:32;27.20;62.10
37794;DHT22;23632;48.826;15.176;2023-06-22T06:06:59;27.20;62.10
37794;DHT22;23632;48.826;15.176;2023-06-22T06:09:26;27.20;62.10
37794;DHT22;23632;48.826;15.176;2023-06-22T06:11:53;27.30;62.10
37794;DHT22;23632;48.826;15.176;2023-06-22T06:14:20;27.30;62.20
37794;DHT22;23632;48.826;15.176;2023-06-22T06:16:49;27.30;62.20
37794;DHT22;23632;48.826;15.176;2023-06-22T06:19:16;27.30;62.30
37794;DHT22;23632;48.826;15.176;2023-06-22T06:21:43;27.30;62.20
37794;DHT22;23632;48.826;15.176;2023-06-22T06:24:10;27.30;62.30
37794;DHT22;23632;48.826;15.176;2023-06-22T06:26:37;27.30;62.30
37794;DHT22;23632;48.826;15.176;2023-06-22T06:29:06;27.40;62.30
37794;DHT22;23632;48.826;15.176;2023-06-22T06:31:34;27.40;62.30
37794;DHT22;23632;48.826;15.176;2023-06-22T06:34:02;27.40;62.30
37794;DHT22;23632;48.826;15.176;2023-06-22T06:36:29;27.40;62.30
37794;DHT22;23632;48.826;15.176;2023-06-22T06:38:56;27.40;63.20
37794;DHT22;23632;48.826;15.176;2023-06-22T06:41:24;27.40;62.40
37794;DHT22;23632;48.826;15.176;2023-06-22T06:43:51;27.40;62.50
37794;DHT22;23632;48.826;15.176;2023-06-22T06:46:19;27.40;62.50
37794;DHT22;23632;48.826;15.176;2023-06-22T06:48:46;27.40;62.50
37794;DHT22;23632;48.826;15.176;2023-06-22T06:51:13;27.50;62.60
37794;DHT22;23632;48.826;15.176;2023-06-22T06:53:41;27.50;62.60
37794;DHT22;23632;48.826;15.176;2023-06-22T06:56:08;27.50;62.60
37794;DHT22;23632;48.826;15.176;2023-06-22T06:58:40;27.50;62.60
37794;DHT22;23632;48.826;15.176;2023-06-22T07:01:08;27.50;62.70
37794;DHT22;23632;48.826;15.176;2023-06-22T07:03:36;27.50;62.70
37794;DHT22;23632;48.826;15.176;2023-06-22T07:06:03;27.50;62.70
37794;DHT22;23632;48.826;15.176;2023-06-22T07:08:31;27.60;62.80
37794;DHT22;23632;48.826;15.176;2023-06-22T07:10:58;27.60;62.80
37794;DHT22;23632;48.826;15.176;2023-06-22T07:13:25;27.60;62.80
37794;DHT22;23632;48.826;15.176;2023-06-22T07:15:52;27.60;62.80
37794;DHT22;23632;48.826;15.176;2023-06-22T07:18:20;27.60;62.90
37794;DHT22;23632;48.826;15.176;2023-06-22T07:20:47;27.60;62.90
37794;DHT22;23632;48.826;15.176;2023-06-22T07:23:15;27.60;62.90
37794;DHT22;23632;48.826;15.176;2023-06-22T07:25:43;27.70;62.90
37794;DHT22;23632;48.826;15.176;2023-06-22T07:28:11;27.70;62.90
37794;DHT22;23632;48.826;15.176;2023-06-22T07:30:38;27.70;63.00
37794;DHT22;23632;48.826;15.176;2023-06-22T07:33:05;27.70;63.00
37794;DHT22;23632;48.826;15.176;2023-06-22T07:35:35;27.70;63.00
37794;DHT22;23632;48.826;15.176;2023-06-22T07:38:03;27.70;63.00
37794;DHT22;23632;48.826;15.176;2023-06-22T07:40:32;27.70;63.10
37794;DHT22;23632;48.826;15.176;2023-06-22T07:43:01;27.70;63.10
37794;DHT22;23632;48.826;15.176;2023-06-22T07:45:29;27.80;63.10
37794;DHT22;23632;48.826;15.176;2023-06-22T07:47:56;27.80;63.10
37794;DHT22;23632;48.826;15.176;2023-06-22T07:50:24;27.80;63.10
37794;DHT22;23632;48.826;15.176;2023-06-22T07:52:51;27.80;63.20
37794;DHT22;23632;48.826;15.176;2023-06-22T07:55:19;27.90;63.20
37794;DHT22;23632;48.826;15.176;2023-06-22T07:57:48;27.90;63.20
37794;DHT22;23632;48.826;15.176;2023-06-22T08:00:16;27.90;63.20
37794;DHT22;23632;48.826;15.176;2023-06-22T08:02:47;27.90;63.20
37794;DHT22;23632;48.826;15.176;2023-06-22T08:05:15;28.00;63.30
37794;DHT22;23632;48.826;15.176;2023-06-22T08:07:48;28.00;63.20
37794;DHT22;23632;48.826;15.176;2023-06-22T08:10:17;28.00;63.20
37794;DHT22;23632;48.826;15.176;2023-06-22T08:12:44;28.00;63.20
37794;DHT22;23632;48.826;15.176;2023-06-22T08:15:11;28.00;63.20
37794;DHT22;23632;48.826;15.176;2023-06-22T08:17:39;28.10;63.20
37794;DHT22;23632;48.826;15.176;2023-06-22T08:20:08;28.10;63.20
37794;DHT22;23632;48.826;15.176;2023-06-22T08:22:37;28.10;63.20
37794;DHT22;23632;48.826;15.176;2023-06-22T08:25:04;28.10;63.20
37794;DHT22;23632;48.826;15.176;2023-06-22T08:27:33;28.20;63.30
37794;DHT22;23632;48.826;15.176;2023-06-22T08:30:00;28.20;63.40
37794;DHT22;23632;48.826;15.176;2023-06-22T08:32:28;28.20;63.40
37794;DHT22;23632;48.826;15.176;2023-06-22T08:34:57;28.20;63.30
37794;DHT22;23632;48.826;15.176;2023-06-22T08:37:24;28.20;63.40
37794;DHT22;23632;48.826;15.176;2023-06-22T08:40:00;28.20;63.40
37794;DHT22;23632;48.826;15.176;2023-06-22T08:42:28;28.30;63.40
37794;DHT22;23632;48.826;15.176;2023-06-22T08:44:55;28.30;63.30
37794;DHT22;23632;48.826;15.176;2023-06-22T08:47:23;28.30;63.30
37794;DHT22;23632;48.826;15.176;2023-06-22T08:49:50;28.30;63.20
37794;DHT22;23632;48.826;15.176;2023-06-22T08:52:18;28.30;63.20
37794;DHT22;23632;48.826;15.176;2023-06-22T08:54:47;28.40;63.40
37794;DHT22;23632;48.826;15.176;2023-06-22T08:57:14;28.40;63.30
37794;DHT22;23632;48.826;15.176;2023-06-22T08:59:43;28.40;63.20
37794;DHT22;23632;48.826;15.176;2023-06-22T09:02:10;28.40;63.20
37794;DHT22;23632;48.826;15.176;2023-06-22T09:04:37;28.40;63.20
37794;DHT22;23632;48.826;15.176;2023-06-22T09:07:05;28.40;63.20
37794;DHT22;23632;48.826;15.176;2023-06-22T09:09:32;28.40;63.20
37794;DHT22;23632;48.826;15.176;2023-06-22T09:12:00;28.50;63.20
37794;DHT22;23632;48.826;15.176;2023-06-22T09:14:27;28.50;63.30
37794;DHT22;23632;48.826;15.176;2023-06-22T09:16:54;28.50;63.20
37794;DHT22;23632;48.826;15.176;2023-06-22T09:19:21;28.60;63.30
37794;DHT22;23632;48.826;15.176;2023-06-22T09:21:49;28.60;63.30
37794;DHT22;23632;48.826;15.176;2023-06-22T09:24:16;28.60;63.30
37794;DHT22;23632;48.826;15.176;2023-06-22T09:26:44;28.60;63.30
37794;DHT22;23632;48.826;15.176;2023-06-22T09:29:11;28.60;63.20
37794;DHT22;23632;48.826;15.176;2023-06-22T09:31:38;28.60;63.20
37794;DHT22;23632;48.826;15.176;2023-06-22T09:34:05;28.70;63.30
37794;DHT22;23632;48.826;15.176;2023-06-22T09:36:32;28.70;63.30
37794;DHT22;23632;48.826;15.176;2023-06-22T09:38:59;28.70;63.20
37794;DHT22;23632;48.826;15.176;2023-06-22T09:41:32;28.70;63.30
37794;DHT22;23632;48.826;15.176;2023-06-22T09:43:59;28.80;63.30
37794;DHT22;23632;48.826;15.176;2023-06-22T09:46:27;28.80;63.20
37794;DHT22;23632;48.826;15.176;2023-06-22T09:48:55;28.80;63.40
37794;DHT22;23632;48.826;15.176;2023-06-22T09:51:23;28.80;63.30
37794;DHT22;23632;48.826;15.176;2023-06-22T09:53:51;28.80;63.30
37794;DHT22;23632;48.826;15.176;2023-06-22T09:56:19;28.80;63.20
37794;DHT22;23632;48.826;15.176;2023-06-22T09:58:47;28.80;63.30
37794;DHT22;23632;48.826;15.176;2023-06-22T10:01:14;28.90;63.30
37794;DHT22;23632;48.826;15.176;2023-06-22T10:03:41;28.90;63.30
37794;DHT22;23632;48.826;15.176;2023-06-22T10:06:09;28.90;63.20
37794;DHT22;23632;48.826;15.176;2023-06-22T10:08:36;28.90;63.10
37794;DHT22;23632;48.826;15.176;2023-06-22T10:11:04;28.90;63.10
37794;DHT22;23632;48.826;15.176;2023-06-22T10:13:31;29.00;63.20
37794;DHT22;23632;48.826;15.176;2023-06-22T10:15:58;29.00;63.10
37794;DHT22;23632;48.826;15.176;2023-06-22T10:18:25;29.00;63.10
37794;DHT22;23632;48.826;15.176;2023-06-22T10:20:52;29.00;63.00
37794;DHT22;23632;48.826;15.176;2023-06-22T10:23:20;29.00;63.10
37794;DHT22;23632;48.826;15.176;2023-06-22T10:25:47;29.00;63.10
37794;DHT22;23632;48.826;15.176;2023-06-22T10:28:15;29.10;63.10
37794;DHT22;23632;48.826;15.176;2023-06-22T10:30:43;29.10;63.10
37794;DHT22;23632;48.826;15.176;2023-06-22T10:33:11;29.10;63.10
37794;DHT22;23632;48.826;15.176;2023-06-22T10:35:39;29.10;63.00
37794;DHT22;23632;48.826;15.176;2023-06-22T10:38:06;29.10;63.00
37794;DHT22;23632;48.826;15.176;2023-06-22T10:40:34;29.10;63.90
37794;DHT22;23632;48.826;15.176;2023-06-22T10:43:01;29.20;63.00
37794;DHT22;23632;48.826;15.176;2023-06-22T10:45:29;29.20;63.00
37794;DHT22;23632;48.826;15.176;2023-06-22T10:47:57;29.30;63.10
37794;DHT22;23632;48.826;15.176;2023-06-22T10:50:25;29.30;63.10
37794;DHT22;23632;48.826;15.176;2023-06-22T10:52:53;29.30;63.00
37794;DHT22;23632;48.826;15.176;2023-06-22T10:55:23;29.30;63.10
37794;DHT22;23632;48.826;15.176;2023-06-22T10:57:50;29.30;63.00
37794;DHT22;23632;48.826;15.176;2023-06-22T11:00:19;29.40;63.00
37794;DHT22;23632;48.826;15.176;2023-06-22T11:02:46;29.40;63.00
37794;DHT22;23632;48.826;15.176;2023-06-22T11:05:14;29.40;63.90
37794;DHT22;23632;48.826;15.176;2023-06-22T11:07:42;29.40;63.00
37794;DHT22;23632;48.826;15.176;2023-06-22T11:10:15;29.40;63.00
37794;DHT22;23632;48.826;15.176;2023-06-22T11:12:43;29.50;63.00
37794;DHT22;23632;48.826;15.176;2023-06-22T11:15:10;29.50;63.00
37794;DHT22;23632;48.826;15.176;2023-06-22T11:17:38;29.50;62.90
37794;DHT22;23632;48.826;15.176;2023-06-22T11:20:06;29.50;62.90
37794;DHT22;23632;48.826;15.176;2023-06-22T11:22:42;29.50;62.90
37794;DHT22;23632;48.826;15.176;2023-06-22T11:25:09;29.50;62.80
37794;DHT22;23632;48.826;15.176;2023-06-22T11:27:38;29.60;62.90
37794;DHT22;23632;48.826;15.176;2023-06-22T11:30:06;29.60;62.90
37794;DHT22;23632;48.826;15.176;2023-06-22T11:32:35;29.60;62.80
37794;DHT22;23632;48.826;15.176;2023-06-22T11:35:02;29.60;62.80
37794;DHT22;23632;48.826;15.176;2023-06-22T11:37:30;29.70;62.80
37794;DHT22;23632;48.826;15.176;2023-06-22T11:39:57;29.70;62.70
37794;DHT22;23632;48.826;15.176;2023-06-22T11:42:33;29.60;62.60
37794;DHT22;23632;48.826;15.176;2023-06-22T11:45:01;29.70;62.60
37794;DHT22;23632;48.826;15.176;2023-06-22T11:47:31;29.70;62.50
37794;DHT22;23632;48.826;15.176;2023-06-22T11:49:58;29.70;62.50
37794;DHT22;23632;48.826;15.176;2023-06-22T11:52:25;29.70;62.40
37794;DHT22;23632;48.826;15.176;2023-06-22T11:54:54;29.70;62.40
37794;DHT22;23632;48.826;15.176;2023-06-22T11:57:21;29.80;62.40
37794;DHT22;23632;48.826;15.176;2023-06-22T11:59:48;29.80;62.20
37794;DHT22;23632;48.826;15.176;2023-06-22T12:02:15;29.80;62.20
37794;DHT22;23632;48.826;15.176;2023-06-22T12:04:42;29.80;62.20
37794;DHT22;23632;48.826;15.176;2023-06-22T12:07:09;29.80;62.10
37794;DHT22;23632;48.826;15.176;2023-06-22T12:09:36;29.80;62.00
37794;DHT22;23632;48.826;15.176;2023-06-22T12:12:04;29.80;61.90
37794;DHT22;23632;48.826;15.176;2023-06-22T12:14:35;29.90;61.90
37794;DHT22;23632;48.826;15.176;2023-06-22T12:17:02;29.80;61.70
37794;DHT22;23632;48.826;15.176;2023-06-22T12:19:29;29.90;61.70
37794;DHT22;23632;48.826;15.176;2023-06-22T12:21:56;29.90;61.60
37794;DHT22;23632;48.826;15.176;2023-06-22T12:24:23;29.90;61.50
37794;DHT22;23632;48.826;15.176;2023-06-22T12:26:51;29.90;61.50
37794;DHT22;23632;48.826;15.176;2023-06-22T12:29:22;30.00;61.40
37794;DHT22;23632;48.826;15.176;2023-06-22T12:31:49;30.00;61.40
37794;DHT22;23632;48.826;15.176;2023-06-22T12:34:16;30.00;61.30
37794;DHT22;23632;48.826;15.176;2023-06-22T12:36:43;30.00;61.30
37794;DHT22;23632;48.826;15.176;2023-06-22T12:39:11;30.00;61.20
37794;DHT22;23632;48.826;15.176;2023-06-22T12:41:38;30.00;61.20
37794;DHT22;23632;48.826;15.176;2023-06-22T12:44:05;30.00;61.10
37794;DHT22;23632;48.826;15.176;2023-06-22T12:46:32;30.10;61.30
37794;DHT22;23632;48.826;15.176;2023-06-22T12:49:04;30.10;62.20
37794;DHT22;23632;48.826;15.176;2023-06-22T12:51:32;30.10;61.20
37794;DHT22;23632;48.826;15.176;2023-06-22T12:53:59;30.20;61.30
37794;DHT22;23632;48.826;15.176;2023-06-22T12:56:26;30.10;61.10
37794;DHT22;23632;48.826;15.176;2023-06-22T12:58:53;30.20;61.20
37794;DHT22;23632;48.826;15.176;2023-06-22T13:01:21;30.20;61.10
37794;DHT22;23632;48.826;15.176;2023-06-22T13:03:49;30.20;61.10
37794;DHT22;23632;48.826;15.176;2023-06-22T13:06:17;30.30;62.10
37794;DHT22;23632;48.826;15.176;2023-06-22T13:08:44;30.20;61.10
37794;DHT22;23632;48.826;15.176;2023-06-22T13:11:31;30.20;61.20
37794;DHT22;23632;48.826;15.176;2023-06-22T13:13:58;30.30;61.20
37794;DHT22;23632;48.826;15.176;2023-06-22T13:16:25;30.40;61.30
37794;DHT22;23632;48.826;15.176;2023-06-22T13:18:52;30.40;61.30
37794;DHT22;23632;48.826;15.176;2023-06-22T13:21:19;30.40;61.30
37794;DHT22;23632;48.826;15.176;2023-06-22T13:23:47;30.40;61.30
37794;DHT22;23632;48.826;15.176;2023-06-22T13:26:14;30.50;61.40
37794;DHT22;23632;48.826;15.176;2023-06-22T13:28:41;30.50;61.30
37794;DHT22;23632;48.826;15.176;2023-06-22T13:31:08;30.50;61.30
37794;DHT22;23632;48.826;15.176;2023-06-22T13:33:38;30.60;61.30
37794;DHT22;23632;48.826;15.176;2023-06-22T13:36:07;30.60;61.30
37794;DHT22;23632;48.826;15.176;2023-06-22T13:38:35;30.70;61.30
37794;DHT22;23632;48.826;15.176;2023-06-22T13:41:06;30.70;61.20
37794;DHT22;23632;48.826;15.176;2023-06-22T13:43:33;30.70;61.20
37794;DHT22;23632;48.826;15.176;2023-06-22T13:46:00;30.80;61.40
37794;DHT22;23632;48.826;15.176;2023-06-22T13:48:27;30.80;61.30
37794;DHT22;23632;48.826;15.176;2023-06-22T13:50:55;30.90;61.30
37794;DHT22;23632;48.826;15.176;2023-06-22T13:53:24;31.00;61.30
37794;DHT22;23632;48.826;15.176;2023-06-22T13:55:52;31.00;61.40
37794;DHT22;23632;48.826;15.176;2023-06-22T13:58:19;31.10;61.30
37794;DHT22;23632;48.826;15.176;2023-06-22T14:00:49;31.10;61.30
37794;DHT22;23632;48.826;15.176;2023-06-22T14:03:16;31.20;61.30
37794;DHT22;23632;48.826;15.176;2023-06-22T14:05:44;31.30;61.30
37794;DHT22;23632;48.826;15.176;2023-06-22T14:08:11;31.30;61.30
37794;DHT22;23632;48.826;15.176;2023-06-22T14:10:59;31.30;61.20
37794;DHT22;23632;48.826;15.176;2023-06-22T14:13:27;31.40;61.20
37794;DHT22;23632;48.826;15.176;2023-06-22T14:15:54;31.50;61.10
37794;DHT22;23632;48.826;15.176;2023-06-22T14:18:21;31.60;61.00
37794;DHT22;23632;48.826;15.176;2023-06-22T14:20:51;31.60;61.00
37794;DHT22;23632;48.826;15.176;2023-06-22T14:23:18;31.70;61.00
37794;DHT22;23632;48.826;15.176;2023-06-22T14:25:45;31.80;61.00
37794;DHT22;23632;48.826;15.176;2023-06-22T14:28:12;31.80;60.90
37794;DHT22;23632;48.826;15.176;2023-06-22T14:30:39;31.90;60.80
37794;DHT22;23632;48.826;15.176;2023-06-22T14:33:06;32.00;60.80
37794;DHT22;23632;48.826;15.176;2023-06-22T14:35:33;32.10;60.70
37794;DHT22;23632;48.826;15.176;2023-06-22T14:38:00;32.10;60.60
37794;DHT22;23632;48.826;15.176;2023-06-22T14:40:27;32.10;60.50
37794;DHT22;23632;48.826;15.176;2023-06-22T14:42:57;32.20;60.50
37794;DHT22;23632;48.826;15.176;2023-06-22T14:45:24;32.20;60.40
37794;DHT22;23632;48.826;15.176;2023-06-22T14:47:52;32.30;60.20
37794;DHT22;23632;48.826;15.176;2023-06-22T14:50:20;32.40;60.10
37794;DHT22;23632;48.826;15.176;2023-06-22T14:52:47;32.40;59.90
37794;DHT22;23632;48.826;15.176;2023-06-22T14:55:14;32.50;59.90
37794;DHT22;23632;48.826;15.176;2023-06-22T14:57:42;32.50;59.60
37794;DHT22;23632;48.826;15.176;2023-06-22T15:00:09;32.60;59.50
37794;DHT22;23632;48.826;15.176;2023-06-22T15:02:36;32.60;59.30
37794;DHT22;23632;48.826;15.176;2023-06-22T15:05:04;32.70;59.40
37794;DHT22;23632;48.826;15.176;2023-06-22T15:07:31;32.70;59.20
37794;DHT22;23632;48.826;15.176;2023-06-22T15:09:59;32.70;59.00
37794;DHT22;23632;48.826;15.176;2023-06-22T15:12:27;32.80;59.00
37794;DHT22;23632;48.826;15.176;2023-06-22T15:14:54;32.80;58.80
37794;DHT22;23632;48.826;15.176;2023-06-22T15:17:21;32.90;58.70
37794;DHT22;23632;48.826;15.176;2023-06-22T15:19:48;32.90;58.60
37794;DHT22;23632;48.826;15.176;2023-06-22T15:22:15;32.90;58.50
37794;DHT22;23632;48.826;15.176;2023-06-22T15:24:45;33.00;58.40
37794;DHT22;23632;48.826;15.176;2023-06-22T15:27:12;33.00;58.20